createdAt,value
2023-07-04T00:02:20.769Z,18.90
2023-07-04T00:04:49.183Z,18.90
2023-07-04T00:07:16.053Z,18.80
2023-07-04T00:09:42.960Z,18.80
2023-07-04T00:12:09.962Z,18.70
2023-07-04T00:14:38.093Z,18.60
2023-07-04T00:17:06.373Z,18.50
2023-07-04T00:19:33.621Z,18.40
2023-07-04T00:22:00.513Z,18.30
2023-07-04T00:24:27.457Z,18.30
2023-07-04T00:26:57.467Z,18.20
2023-07-04T00:29:24.741Z,18.10
2023-07-04T00:31:53.173Z,18.00
2023-07-04T00:34:22.016Z,17.90
2023-07-04T00:36:48.874Z,17.80
2023-07-04T00:39:15.724Z,17.80
2023-07-04T00:41:42.617Z,17.70
2023-07-04T00:44:21.289Z,17.60
2023-07-04T00:46:55.881Z,17.60
2023-07-04T00:49:27.633Z,17.50
2023-07-04T00:52:00.335Z,17.50
2023-07-04T00:54:33.806Z,17.40
2023-07-04T00:57:05.680Z,17.30
2023-07-04T00:59:34.591Z,17.30
2023-07-04T01:02:03.706Z,17.30
2023-07-04T01:04:32.501Z,17.20
2023-07-04T01:07:10.844Z,17.20
2023-07-04T01:09:40.871Z,17.20
2023-07-04T01:12:08.695Z,17.10
2023-07-04T01:14:36.621Z,17.10
2023-07-04T01:17:07.749Z,17.10
2023-07-04T01:19:39.708Z,17.00
2023-07-04T01:22:16.590Z,17.00
2023-07-04T01:24:54.997Z,16.90
2023-07-04T01:27:25.733Z,16.90
2023-07-04T01:29:52.999Z,16.80
2023-07-04T01:32:21.132Z,16.80
2023-07-04T01:34:48.078Z,16.70
2023-07-04T01:37:15.212Z,16.70
2023-07-04T01:39:42.060Z,16.60
2023-07-04T01:42:09.028Z,16.60
2023-07-04T01:44:37.207Z,16.60
2023-07-04T01:47:04.782Z,16.60
2023-07-04T01:49:31.561Z,16.60
2023-07-04T01:51:59.275Z,16.60
2023-07-04T01:54:26.251Z,16.50
2023-07-04T01:56:53.788Z,16.40
2023-07-04T01:59:21.633Z,16.40
2023-07-04T02:01:50.701Z,16.40
2023-07-04T02:04:17.569Z,16.30
2023-07-04T02:06:44.358Z,16.30
2023-07-04T02:09:11.317Z,16.30
2023-07-04T02:11:38.164Z,16.30
2023-07-04T02:14:05.018Z,16.20
2023-07-04T02:16:31.968Z,16.20
2023-07-04T02:19:00.165Z,16.20
2023-07-04T02:21:27.805Z,16.10
2023-07-04T02:23:55.549Z,16.10
2023-07-04T02:26:22.431Z,16.10
2023-07-04T02:28:49.298Z,16.10
2023-07-04T02:31:16.166Z,16.00
2023-07-04T02:33:42.955Z,16.00
2023-07-04T02:36:13.016Z,16.00
2023-07-04T02:38:40.632Z,16.00
2023-07-04T02:41:08.283Z,16.00
2023-07-04T02:43:35.749Z,15.90
2023-07-04T02:46:03.343Z,15.90
2023-07-04T02:48:30.182Z,15.90
2023-07-04T02:50:57.227Z,16.00
2023-07-04T02:53:25.421Z,16.00
2023-07-04T02:55:53.570Z,16.00
2023-07-04T02:58:21.265Z,16.00
2023-07-04T03:00:49.388Z,16.00
2023-07-04T03:03:17.083Z,16.00
2023-07-04T03:05:46.153Z,16.10
2023-07-04T03:08:12.973Z,16.00
2023-07-04T03:10:41.146Z,16.10
2023-07-04T03:13:08.091Z,16.00
2023-07-04T03:15:35.991Z,16.10
2023-07-04T03:18:04.394Z,16.10
2023-07-04T03:20:33.054Z,16.10
2023-07-04T03:22:59.892Z,16.10
2023-07-04T03:25:26.732Z,16.20
2023-07-04T03:27:54.812Z,16.20
2023-07-04T03:30:22.710Z,16.20
2023-07-04T03:32:49.724Z,16.20
2023-07-04T03:35:16.597Z,16.20
2023-07-04T03:37:43.427Z,16.20
2023-07-04T03:40:11.799Z,16.20
2023-07-04T03:42:40.130Z,16.20
2023-07-04T03:45:09.653Z,16.20
2023-07-04T03:47:36.896Z,16.20
2023-07-04T03:50:04.236Z,16.20
2023-07-04T03:52:31.024Z,16.20
2023-07-04T03:54:57.882Z,16.20
2023-07-04T03:57:24.952Z,16.10
2023-07-04T03:59:51.808Z,16.10
2023-07-04T04:02:20.081Z,16.10
2023-07-04T04:04:47.944Z,16.10
2023-07-04T04:07:15.975Z,16.10
2023-07-04T04:09:43.342Z,16.10
2023-07-04T04:12:11.009Z,16.10
2023-07-04T04:14:38.561Z,16.10
2023-07-04T04:17:06.692Z,16.10
2023-07-04T04:19:34.936Z,16.10
2023-07-04T04:22:02.278Z,16.10
2023-07-04T04:24:29.391Z,16.10
2023-07-04T04:26:58.182Z,16.10
2023-07-04T04:29:25.085Z,16.10
2023-07-04T04:31:52.077Z,16.10
2023-07-04T04:34:18.913Z,16.10
2023-07-04T04:36:47.061Z,16.20
2023-07-04T04:39:14.303Z,16.30
2023-07-04T04:41:42.194Z,16.30
2023-07-04T04:44:10.020Z,16.40
2023-07-04T04:46:37.587Z,16.40
2023-07-04T04:49:04.594Z,16.50
2023-07-04T04:51:32.556Z,16.50
2023-07-04T04:54:02.136Z,16.50
2023-07-04T04:56:29.635Z,16.50
2023-07-04T04:58:57.384Z,16.50
2023-07-04T05:01:25.818Z,16.50
2023-07-04T05:03:54.443Z,16.60
2023-07-04T05:06:23.034Z,16.50
2023-07-04T05:08:50.895Z,16.50
2023-07-04T05:11:19.713Z,16.60
2023-07-04T05:13:47.016Z,16.50
2023-07-04T05:16:16.440Z,16.50
2023-07-04T05:18:44.576Z,16.50
2023-07-04T05:21:13.049Z,16.50
2023-07-04T05:23:42.730Z,16.50
2023-07-04T05:26:11.470Z,16.50
2023-07-04T05:28:40.486Z,16.50
2023-07-04T05:31:08.963Z,16.50
2023-07-04T05:33:36.331Z,16.60
2023-07-04T05:36:08.434Z,16.60
2023-07-04T05:38:36.491Z,16.60
2023-07-04T05:41:03.920Z,16.70
2023-07-04T05:43:30.794Z,16.80
2023-07-04T05:45:58.985Z,16.80
2023-07-04T05:48:25.924Z,16.90
2023-07-04T05:50:54.627Z,16.90
2023-07-04T05:53:23.373Z,17.00
2023-07-04T05:55:50.460Z,17.10
2023-07-04T05:58:17.618Z,17.20
2023-07-04T06:00:44.693Z,17.20
2023-07-04T06:03:13.105Z,17.40
2023-07-04T06:05:40.661Z,17.40
2023-07-04T06:08:08.176Z,17.50
2023-07-04T06:10:35.223Z,17.60
2023-07-04T06:13:02.448Z,17.70
2023-07-04T06:15:30.204Z,17.80
2023-07-04T06:17:57.124Z,17.90
2023-07-04T06:20:26.077Z,18.00
2023-07-04T06:22:52.889Z,18.10
2023-07-04T06:25:19.680Z,18.10
2023-07-04T06:27:46.456Z,18.10
2023-07-04T06:30:13.724Z,18.20
2023-07-04T06:32:41.465Z,18.30
2023-07-04T06:35:09.378Z,18.40
2023-07-04T06:37:37.530Z,18.40
2023-07-04T06:40:05.240Z,18.40
2023-07-04T06:42:32.694Z,18.50
2023-07-04T06:44:59.600Z,18.60
2023-07-04T06:47:26.642Z,18.60
2023-07-04T06:49:54.196Z,18.60
2023-07-04T06:52:21.208Z,18.70
2023-07-04T06:54:53.188Z,18.70
2023-07-04T06:57:20.378Z,18.80
2023-07-04T06:59:47.254Z,18.90
2023-07-04T07:02:15.953Z,18.90
2023-07-04T07:04:43.613Z,19.00
2023-07-04T07:07:11.625Z,18.90
2023-07-04T07:09:41.314Z,19.00
2023-07-04T07:12:10.825Z,19.10
2023-07-04T07:14:38.151Z,19.20
2023-07-04T07:17:06.214Z,19.20
2023-07-04T07:19:33.255Z,19.30
2023-07-04T07:22:01.439Z,19.50
2023-07-04T07:24:29.507Z,19.60
2023-07-04T07:26:56.869Z,19.60
2023-07-04T07:29:26.171Z,19.70
2023-07-04T07:31:53.093Z,19.70
2023-07-04T07:34:20.078Z,19.80
2023-07-04T07:36:48.037Z,19.80
2023-07-04T07:39:16.628Z,19.80
2023-07-04T07:41:46.668Z,19.90
2023-07-04T07:44:15.091Z,20.00
2023-07-04T07:46:44.356Z,20.00
2023-07-04T07:49:13.526Z,20.10
2023-07-04T07:51:40.393Z,20.20
2023-07-04T07:54:07.805Z,20.30
2023-07-04T07:56:40.244Z,20.30
2023-07-04T07:59:07.383Z,20.40
2023-07-04T08:01:35.440Z,20.40
2023-07-04T08:04:05.138Z,20.40
2023-07-04T08:06:36.046Z,20.50
2023-07-04T08:09:04.697Z,20.60
2023-07-04T08:11:33.673Z,20.70
2023-07-04T08:14:01.056Z,20.80
2023-07-04T08:16:30.316Z,20.90
2023-07-04T08:18:59.115Z,20.90
2023-07-04T08:21:27.977Z,20.90
2023-07-04T08:23:55.552Z,20.90
2023-07-04T08:26:24.381Z,20.80
2023-07-04T08:28:54.257Z,20.90
2023-07-04T08:31:22.126Z,20.90
2023-07-04T08:33:49.302Z,21.00
2023-07-04T08:36:17.602Z,21.00
2023-07-04T08:38:48.414Z,21.10
2023-07-04T08:41:26.641Z,21.30
2023-07-04T08:43:59.150Z,21.30
2023-07-04T08:46:29.422Z,21.40
2023-07-04T08:48:56.462Z,21.50
2023-07-04T08:51:32.743Z,21.70
2023-07-04T08:54:04.774Z,21.70
2023-07-04T08:56:34.761Z,21.70
2023-07-04T08:59:09.758Z,21.80
2023-07-04T09:01:52.915Z,21.90
2023-07-04T09:04:26.648Z,21.90
2023-07-04T09:07:01.546Z,21.90
2023-07-04T09:09:41.058Z,22.00
2023-07-04T09:12:08.064Z,22.00
2023-07-04T09:14:40.158Z,22.00
2023-07-04T09:17:27.252Z,22.00
2023-07-04T09:19:55.156Z,22.00
2023-07-04T09:22:22.306Z,22.10
2023-07-04T09:24:50.795Z,22.30
2023-07-04T09:27:18.063Z,22.30
2023-07-04T09:29:45.548Z,22.30
2023-07-04T09:32:13.246Z,22.40
2023-07-04T09:34:47.536Z,22.40
2023-07-04T09:37:16.078Z,22.40
2023-07-04T09:42:30.465Z,22.60
2023-07-04T09:45:10.926Z,22.60
2023-07-04T09:47:41.865Z,22.70
2023-07-04T09:50:11.701Z,22.70
2023-07-04T09:52:39.570Z,22.80
2023-07-04T09:55:10.015Z,22.80
2023-07-04T09:57:38.240Z,23.00
2023-07-04T10:00:20.261Z,23.10
2023-07-04T10:02:49.113Z,23.30
2023-07-04T10:05:27.573Z,23.40
2023-07-04T10:08:09.979Z,23.40
2023-07-04T10:10:39.468Z,23.40
2023-07-04T10:13:08.775Z,23.40
2023-07-04T10:15:41.821Z,23.40
2023-07-04T10:18:24.138Z,23.50
2023-07-04T10:20:56.167Z,23.50
2023-07-04T10:23:24.370Z,23.60
2023-07-04T10:25:53.728Z,23.70
2023-07-04T10:28:26.397Z,24.00
2023-07-04T10:30:57.487Z,24.00
2023-07-04T10:33:31.305Z,24.10
2023-07-04T10:35:58.200Z,24.30
2023-07-04T10:38:42.515Z,24.40
2023-07-04T10:41:17.860Z,24.50
2023-07-04T10:43:52.297Z,24.50
2023-07-04T10:46:24.129Z,24.50
2023-07-04T10:48:59.290Z,24.50
2023-07-04T10:51:31.051Z,24.60
2023-07-04T10:53:58.115Z,24.70
2023-07-04T10:56:28.899Z,24.90
2023-07-04T10:59:03.927Z,25.00
2023-07-04T11:01:36.266Z,25.10
2023-07-04T11:04:10.596Z,25.20
2023-07-04T11:06:43.253Z,25.20
2023-07-04T11:09:14.535Z,25.30
2023-07-04T11:11:47.856Z,25.50
2023-07-04T11:14:27.372Z,25.60
2023-07-04T11:16:55.665Z,25.60
2023-07-04T11:19:27.924Z,25.60
2023-07-04T11:22:11.026Z,25.60
2023-07-04T11:24:40.500Z,25.60
2023-07-04T11:27:12.544Z,25.70
2023-07-04T11:29:53.750Z,25.90
2023-07-04T11:32:26.383Z,26.10
2023-07-04T11:34:55.446Z,26.10
2023-07-04T11:37:31.549Z,26.10
2023-07-04T11:40:01.199Z,26.20
2023-07-04T11:42:38.816Z,26.20
2023-07-04T11:45:13.168Z,26.10
2023-07-04T11:47:43.842Z,26.10
2023-07-04T11:50:17.457Z,26.20
2023-07-04T11:52:55.803Z,26.30
2023-07-04T11:55:26.876Z,26.20
2023-07-04T11:58:18.100Z,26.40
2023-07-04T12:00:58.339Z,26.50
2023-07-04T12:03:38.053Z,26.60
2023-07-04T12:06:05.393Z,26.80
2023-07-04T12:08:38.003Z,27.00
2023-07-04T12:11:07.590Z,27.20
2023-07-04T12:13:40.314Z,27.50
2023-07-04T12:16:09.448Z,27.60
2023-07-04T12:18:40.684Z,27.80
2023-07-04T12:21:10.494Z,27.80
2023-07-04T12:23:37.873Z,27.90
2023-07-04T12:26:07.104Z,28.20
2023-07-04T12:28:34.082Z,28.40
2023-07-04T12:33:40.572Z,28.70
2023-07-04T12:36:11.150Z,28.80
2023-07-04T12:38:47.264Z,28.60
2023-07-04T12:41:16.455Z,28.30
2023-07-04T12:51:20.696Z,27.90
2023-07-04T12:53:48.385Z,27.90
2023-07-04T12:56:17.047Z,27.70
2023-07-04T12:58:45.439Z,27.40
2023-07-04T13:01:16.404Z,27.20
2023-07-04T13:03:46.612Z,27.10
2023-07-04T13:06:21.026Z,27.10
2023-07-04T13:08:50.754Z,27.20
2023-07-04T13:11:20.748Z,27.30
2023-07-04T13:13:49.814Z,27.50
2023-07-04T13:16:23.568Z,27.70
2023-07-04T13:18:50.779Z,27.80
2023-07-04T13:21:28.974Z,27.80
2023-07-04T13:26:28.623Z,27.60
2023-07-04T13:30:22.496Z,27.50
2023-07-04T13:34:17.589Z,27.50
2023-07-04T13:36:48.206Z,27.60
2023-07-04T13:41:48.550Z,27.70
2023-07-04T13:45:12.694Z,27.60
2023-07-04T13:47:04.973Z,27.70
2023-07-04T13:49:31.769Z,27.70
2023-07-04T13:52:00.120Z,27.60
2023-07-04T13:54:26.982Z,27.60
2023-07-04T13:56:53.824Z,27.70
2023-07-04T13:59:21.191Z,27.70
2023-07-04T14:06:52.778Z,27.60
2023-07-04T14:09:22.101Z,27.60
2023-07-04T14:11:49.039Z,27.50
2023-07-04T14:17:12.520Z,27.40
2023-07-04T14:22:02.582Z,27.30
2023-07-04T14:24:30.806Z,27.40
2023-07-04T14:26:57.767Z,27.40
2023-07-04T14:29:24.585Z,27.40
2023-07-04T14:31:51.457Z,27.50
2023-07-04T14:34:18.269Z,27.50
2023-07-04T14:36:45.130Z,27.50
2023-07-04T14:39:11.953Z,27.30
2023-07-04T14:44:09.872Z,27.10
2023-07-04T14:46:36.717Z,27.00
2023-07-04T14:49:03.581Z,27.00
2023-07-04T14:51:30.503Z,27.00
2023-07-04T14:53:57.319Z,27.00
2023-07-04T14:56:33.394Z,27.00
2023-07-04T14:59:09.063Z,27.00
2023-07-04T15:01:36.272Z,27.10
2023-07-04T15:04:04.519Z,27.10
2023-07-04T15:06:31.551Z,27.20
2023-07-04T15:08:58.673Z,27.20
2023-07-04T15:11:25.821Z,27.20
2023-07-04T15:13:52.743Z,27.20
2023-07-04T15:16:21.255Z,27.30
2023-07-04T15:18:48.216Z,27.20
2023-07-04T15:21:15.047Z,27.10
2023-07-04T15:23:41.885Z,27.10
2023-07-04T15:28:43.098Z,27.00
2023-07-04T15:31:09.878Z,27.00
2023-07-04T15:33:38.263Z,27.00
2023-07-04T15:36:05.534Z,27.00
2023-07-04T15:38:32.371Z,26.80
2023-07-04T15:41:01.020Z,26.70
2023-07-04T15:43:29.890Z,26.70
2023-07-04T15:45:58.934Z,26.60
2023-07-04T15:48:26.047Z,26.60
2023-07-04T15:50:56.799Z,26.70
2023-07-04T15:53:24.079Z,26.80
2023-07-04T15:55:52.477Z,26.90
2023-07-04T15:58:19.891Z,27.00
2023-07-04T16:00:46.866Z,27.10
2023-07-04T16:03:14.317Z,27.10
2023-07-04T16:05:42.632Z,27.20
2023-07-04T16:08:10.807Z,27.20
2023-07-04T16:10:38.108Z,27.20
2023-07-04T16:13:05.355Z,27.10
2023-07-04T16:15:32.651Z,27.10
2023-07-04T16:18:00.260Z,27.00
2023-07-04T16:20:27.342Z,27.00
2023-07-04T16:22:54.155Z,26.80
2023-07-04T16:25:22.335Z,26.80
2023-07-04T16:27:49.236Z,26.70
2023-07-04T16:30:16.272Z,26.70
2023-07-04T16:32:43.215Z,26.60
2023-07-04T16:35:10.203Z,26.50
2023-07-04T16:37:37.899Z,26.50
2023-07-04T16:40:05.990Z,26.50
2023-07-04T16:42:34.206Z,26.50
2023-07-04T16:45:00.970Z,26.40
2023-07-04T16:47:27.944Z,26.40
2023-07-04T16:49:54.869Z,26.40
2023-07-04T16:52:21.700Z,26.30
2023-07-04T16:54:48.544Z,26.30
2023-07-04T16:57:15.441Z,26.20
2023-07-04T16:59:43.653Z,26.20
2023-07-04T17:02:10.474Z,26.10
2023-07-04T17:04:37.360Z,26.10
2023-07-04T17:07:04.847Z,26.00
2023-07-04T17:09:32.028Z,25.80
2023-07-04T17:11:59.897Z,26.00
2023-07-04T17:14:27.518Z,26.00
2023-07-04T17:16:55.986Z,26.00
2023-07-04T17:19:23.040Z,26.00
2023-07-04T17:21:49.840Z,26.00
2023-07-04T17:24:17.518Z,26.00
2023-07-04T17:26:44.523Z,26.00
2023-07-04T17:29:11.417Z,25.90
2023-07-04T17:31:38.318Z,25.90
2023-07-04T17:34:06.570Z,25.90
2023-07-04T17:36:35.113Z,25.90
2023-07-04T17:39:02.152Z,25.90
2023-07-04T17:41:29.555Z,25.90
2023-07-04T17:43:58.306Z,25.80
2023-07-04T17:46:27.041Z,25.80
2023-07-04T17:48:53.874Z,25.80
2023-07-04T17:51:24.581Z,25.70
2023-07-04T17:53:52.174Z,25.70
2023-07-04T17:56:20.941Z,25.70
2023-07-04T17:58:47.833Z,25.60
2023-07-04T18:01:17.303Z,25.60
2023-07-04T18:03:45.879Z,25.60
2023-07-04T18:06:14.797Z,25.60
2023-07-04T18:08:43.194Z,25.60
2023-07-04T18:11:15.645Z,25.60
2023-07-04T18:13:42.992Z,25.60
2023-07-04T18:16:10.338Z,25.50
2023-07-04T18:18:38.006Z,25.50
2023-07-04T18:21:07.271Z,25.50
2023-07-04T18:23:34.576Z,25.60
2023-07-04T18:26:03.753Z,25.50
2023-07-04T18:28:32.170Z,25.50
2023-07-04T18:31:03.873Z,25.50
2023-07-04T18:33:31.014Z,25.50
2023-07-04T18:35:58.056Z,25.50
2023-07-04T18:38:26.457Z,25.40
2023-07-04T18:40:53.685Z,25.40
2023-07-04T18:43:22.676Z,25.40
2023-07-04T18:45:50.665Z,25.40
2023-07-04T18:48:17.611Z,25.40
2023-07-04T18:50:45.150Z,25.30
2023-07-04T18:53:11.965Z,25.30
2023-07-04T18:55:40.187Z,25.30
2023-07-04T18:58:07.919Z,25.30
2023-07-04T19:00:36.174Z,25.30
2023-07-04T19:03:03.393Z,25.30
2023-07-04T19:05:32.731Z,25.20
2023-07-04T19:08:00.122Z,25.20
2023-07-04T19:10:28.566Z,25.20
2023-07-04T19:12:55.394Z,25.20
2023-07-04T19:15:22.238Z,25.10
2023-07-04T19:17:52.555Z,25.10
2023-07-04T19:20:20.039Z,25.10
2023-07-04T19:22:47.425Z,25.10
2023-07-04T19:25:14.836Z,25.10
2023-07-04T19:27:41.831Z,25.10
2023-07-04T19:30:09.757Z,25.00
2023-07-04T19:32:36.730Z,25.00
2023-07-04T19:35:05.836Z,24.90
2023-07-04T19:37:32.875Z,24.80
2023-07-04T19:39:59.749Z,24.70
2023-07-04T19:42:26.883Z,24.70
2023-07-04T19:44:54.037Z,24.60
2023-07-04T19:47:23.489Z,24.50
2023-07-04T19:49:50.554Z,24.50
2023-07-04T19:52:18.715Z,24.40
2023-07-04T19:54:45.632Z,24.30
2023-07-04T19:57:12.536Z,24.30
2023-07-04T19:59:39.321Z,24.20
2023-07-04T20:02:08.259Z,24.10
2023-07-04T20:04:35.074Z,24.00
2023-07-04T20:07:01.952Z,23.90
2023-07-04T20:09:30.597Z,23.80
2023-07-04T20:11:57.524Z,23.70
2023-07-04T20:14:24.595Z,23.60
2023-07-04T20:16:51.686Z,23.50
2023-07-04T20:19:18.507Z,23.50
2023-07-04T20:21:45.474Z,23.40
2023-07-04T20:24:12.410Z,23.40
2023-07-04T20:26:40.575Z,23.40
2023-07-04T20:29:07.441Z,23.40
2023-07-04T20:31:34.398Z,23.40
2023-07-04T20:34:03.083Z,23.30
2023-07-04T20:36:30.253Z,23.30
2023-07-04T20:38:57.505Z,23.20
2023-07-04T20:41:24.834Z,23.20
2023-07-04T20:43:53.208Z,23.10
2023-07-04T20:46:20.080Z,23.10
2023-07-04T20:48:46.963Z,23.00
2023-07-04T20:51:13.758Z,23.00
2023-07-04T20:53:41.001Z,23.00
2023-07-04T20:56:09.372Z,22.90
2023-07-04T20:58:36.315Z,22.90
2023-07-04T21:01:04.654Z,23.00
2023-07-04T21:03:31.812Z,23.10
2023-07-04T21:06:02.104Z,23.10
2023-07-04T21:08:28.923Z,23.20
2023-07-04T21:11:06.095Z,23.20
2023-07-04T21:13:34.309Z,23.20
2023-07-04T21:16:05.235Z,23.20
2023-07-04T21:18:32.587Z,23.20
2023-07-04T21:20:59.580Z,23.20
2023-07-04T21:23:26.546Z,23.10
2023-07-04T21:26:00.103Z,23.10
2023-07-04T21:28:27.361Z,23.00
2023-07-04T21:30:54.483Z,23.00
2023-07-04T21:33:22.854Z,22.90
2023-07-04T21:35:49.742Z,22.90
2023-07-04T21:38:16.512Z,22.90
2023-07-04T21:40:43.404Z,22.80
2023-07-04T21:43:12.861Z,22.80
2023-07-04T21:45:41.469Z,22.90
2023-07-04T21:48:08.305Z,22.70
2023-07-04T21:50:39.124Z,22.70
2023-07-04T21:53:05.856Z,22.60
2023-07-04T21:55:32.705Z,22.60
2023-07-04T21:57:59.491Z,22.60
2023-07-04T22:00:26.835Z,22.60
2023-07-04T22:02:53.720Z,22.60
2023-07-04T22:05:20.718Z,22.60
2023-07-04T22:07:48.860Z,22.60
2023-07-04T22:10:16.402Z,22.60
2023-07-04T22:12:43.215Z,22.50
2023-07-04T22:15:10.950Z,22.40
2023-07-04T22:17:37.806Z,22.40
2023-07-04T22:20:05.420Z,22.30
2023-07-04T22:22:32.287Z,22.30
2023-07-04T22:25:00.644Z,22.20
2023-07-04T22:27:27.390Z,22.10
2023-07-04T22:29:54.152Z,22.10
2023-07-04T22:32:20.976Z,22.10
2023-07-04T22:34:47.791Z,22.10
2023-07-04T22:37:14.706Z,22.00
2023-07-04T22:39:41.584Z,22.00
2023-07-04T22:42:09.943Z,21.90
2023-07-04T22:44:36.758Z,21.90
2023-07-04T22:47:03.600Z,21.90
2023-07-04T22:49:33.297Z,21.80
2023-07-04T22:52:00.633Z,21.70
2023-07-04T22:54:28.449Z,21.70
2023-07-04T22:56:55.288Z,21.70
2023-07-04T22:59:23.517Z,21.60
2023-07-04T23:01:50.386Z,21.50
2023-07-04T23:04:17.276Z,21.50
2023-07-04T23:06:44.148Z,21.40
2023-07-04T23:09:11.058Z,21.40
2023-07-04T23:11:37.821Z,21.40
2023-07-04T23:14:04.867Z,21.40
2023-07-04T23:16:33.279Z,21.30
2023-07-04T23:19:00.209Z,21.30
2023-07-04T23:21:27.057Z,21.30
2023-07-04T23:23:54.118Z,21.20
2023-07-04T23:26:24.616Z,21.20
2023-07-04T23:28:51.568Z,21.20
2023-07-04T23:31:19.001Z,21.20
2023-07-04T23:33:48.160Z,21.20
2023-07-04T23:36:17.075Z,21.20
2023-07-04T23:38:47.004Z,21.20
2023-07-04T23:41:13.805Z,21.00
2023-07-04T23:43:40.716Z,21.20
2023-07-04T23:46:07.704Z,21.20
2023-07-04T23:48:34.472Z,21.20
2023-07-04T23:51:02.575Z,21.20
2023-07-04T23:53:29.349Z,21.10
2023-07-04T23:55:56.347Z,21.10
2023-07-04T23:58:23.480Z,21.10
